Caraquet, Canada
Current Conditions -  °F | °C
As of 7:00 AM on Tuesday 21 Oct 2014 (Local Time) from CZBF Reporting Station
Broken Clouds Broken Clouds  
Wind Chill: 26°   Ceiling: 10000
Heat Index: 32°   Visibility: 15mi
Dew Point: 25°   Wind: 7mph
Humidity: 75%   Direction: 250°WSW
Pressure: 30"   Gusts: NA
Location:  47.78°N, 64.95°W
Report Text: CZBF 211000Z 25006KT 15SM FEW080 BKN100 00/M04 A3000 RMK AS2AC3 SLP162
Loading
Personal Weather Stations






























Interactive Weather Map New forecast layout! Learn more

10-Day Weather Forecast

Advertisements
Track Severe Weather on mobile